Woodbridge, Indiana
Current Conditions -  °F | °C
As of 12:15 PM on Thursday 27 Nov 2014 (Local Time) from K1II Reporting Station
Light Snow Light Snow  
Wind Chill: 25°   Ceiling: 3600
Heat Index: 32°   Visibility: 7mi
Dew Point: 25°   Wind: 8mph
Humidity: 75%   Direction: 280°W
Pressure: 30.34"   Gusts: 16mph
Location:  39.244°N, 86.4536°W
Report Text: K1II 271715Z AUTO 28007G14KT 7SM -SN SCT016 BKN036 OVC050 00/M04 A3034 RMK AO2
Loading
Personal Weather Stations






























Interactive Weather Map New forecast layout! Learn more

10-Day Weather Forecast

Advertisements
Track Severe Weather on mobile